sensor_id;sensor_type;location;lat;lon;timestamp;pressure;altitude;pressure_sealevel;temperature;humidity
5609;BME280;2826;51.354;9.588;2023-12-28T00:02:15;97737.41;;;8.57;55.45
5609;BME280;2826;51.354;9.588;2023-12-28T00:04:42;97742.25;;;8.65;54.81
5609;BME280;2826;51.354;9.588;2023-12-28T00:07:10;97753.09;;;8.75;54.48
5609;BME280;2826;51.354;9.588;2023-12-28T00:09:37;97755.47;;;8.80;54.39
5609;BME280;2826;51.354;9.588;2023-12-28T00:12:04;97757.09;;;8.82;54.33
5609;BME280;2826;51.354;9.588;2023-12-28T00:14:32;97752.59;;;8.87;54.42
5609;BME280;2826;51.354;9.588;2023-12-28T00:16:59;97755.97;;;8.89;54.87
5609;BME280;2826;51.354;9.588;2023-12-28T00:19:26;97767.59;;;8.79;54.44
5609;BME280;2826;51.354;9.588;2023-12-28T00:21:52;97756.94;;;8.87;54.22
5609;BME280;2826;51.354;9.588;2023-12-28T00:24:20;97765.03;;;9.00;54.59
5609;BME280;2826;51.354;9.588;2023-12-28T00:26:47;97743.00;;;8.91;54.45
5609;BME280;2826;51.354;9.588;2023-12-28T00:29:13;97732.44;;;8.96;54.32
5609;BME280;2826;51.354;9.588;2023-12-28T00:31:40;97707.34;;;8.77;54.14
5609;BME280;2826;51.354;9.588;2023-12-28T00:34:07;97753.78;;;9.01;54.25
5609;BME280;2826;51.354;9.588;2023-12-28T00:36:33;97745.91;;;9.04;54.15
5609;BME280;2826;51.354;9.588;2023-12-28T00:39:00;97753.69;;;9.04;54.01
5609;BME280;2826;51.354;9.588;2023-12-28T00:41:28;97748.44;;;9.06;53.66
5609;BME280;2826;51.354;9.588;2023-12-28T00:43:55;97750.38;;;9.00;53.32
5609;BME280;2826;51.354;9.588;2023-12-28T00:46:21;97760.28;;;9.11;53.36
5609;BME280;2826;51.354;9.588;2023-12-28T00:48:48;97755.81;;;9.15;53.34
5609;BME280;2826;51.354;9.588;2023-12-28T00:51:14;97742.47;;;9.26;53.52
5609;BME280;2826;51.354;9.588;2023-12-28T00:53:41;97744.06;;;9.28;52.97
5609;BME280;2826;51.354;9.588;2023-12-28T00:56:09;97723.34;;;9.08;52.88
5609;BME280;2826;51.354;9.588;2023-12-28T00:58:38;97757.97;;;9.26;53.34
5609;BME280;2826;51.354;9.588;2023-12-28T01:01:05;97760.13;;;9.37;53.48
5609;BME280;2826;51.354;9.588;2023-12-28T01:03:32;97771.50;;;9.33;53.62
5609;BME280;2826;51.354;9.588;2023-12-28T01:05:58;97785.22;;;9.35;53.08
5609;BME280;2826;51.354;9.588;2023-12-28T01:08:25;97788.84;;;9.31;53.53
5609;BME280;2826;51.354;9.588;2023-12-28T01:10:52;97783.75;;;9.29;54.10
5609;BME280;2826;51.354;9.588;2023-12-28T01:13:18;97784.63;;;9.28;53.70
5609;BME280;2826;51.354;9.588;2023-12-28T01:15:45;97780.41;;;9.25;53.64
5609;BME280;2826;51.354;9.588;2023-12-28T01:18:12;97778.56;;;9.29;53.74
5609;BME280;2826;51.354;9.588;2023-12-28T01:20:38;97777.13;;;9.22;53.72
5609;BME280;2826;51.354;9.588;2023-12-28T01:23:05;97787.16;;;9.30;54.17
5609;BME280;2826;51.354;9.588;2023-12-28T01:25:31;97781.91;;;9.31;53.93
5609;BME280;2826;51.354;9.588;2023-12-28T01:27:57;97785.53;;;9.27;53.91
5609;BME280;2826;51.354;9.588;2023-12-28T01:30:24;97792.16;;;9.34;54.00
5609;BME280;2826;51.354;9.588;2023-12-28T01:32:53;97811.16;;;9.33;54.14
5609;BME280;2826;51.354;9.588;2023-12-28T01:35:19;97802.50;;;9.34;54.08
5609;BME280;2826;51.354;9.588;2023-12-28T01:37:46;97801.69;;;9.32;54.16
5609;BME280;2826;51.354;9.588;2023-12-28T01:40:13;97793.28;;;9.27;53.87
5609;BME280;2826;51.354;9.588;2023-12-28T01:42:39;97805.72;;;9.39;53.76
5609;BME280;2826;51.354;9.588;2023-12-28T01:45:07;97794.47;;;9.40;53.83
5609;BME280;2826;51.354;9.588;2023-12-28T01:47:34;97802.56;;;9.33;53.91
5609;BME280;2826;51.354;9.588;2023-12-28T01:50:03;97800.56;;;9.39;53.98
5609;BME280;2826;51.354;9.588;2023-12-28T01:52:32;97810.00;;;9.40;54.50
5609;BME280;2826;51.354;9.588;2023-12-28T01:54:58;97812.47;;;9.44;54.84
5609;BME280;2826;51.354;9.588;2023-12-28T01:57:25;97798.22;;;9.33;54.74
5609;BME280;2826;51.354;9.588;2023-12-28T01:59:52;97813.31;;;9.44;55.02
5609;BME280;2826;51.354;9.588;2023-12-28T02:02:21;97823.44;;;9.28;55.42
5609;BME280;2826;51.354;9.588;2023-12-28T02:04:48;97819.69;;;9.35;56.09
5609;BME280;2826;51.354;9.588;2023-12-28T02:07:17;97817.66;;;9.21;56.89
5609;BME280;2826;51.354;9.588;2023-12-28T02:09:45;97814.03;;;9.25;57.26
5609;BME280;2826;51.354;9.588;2023-12-28T02:12:11;97829.09;;;9.15;57.94
5609;BME280;2826;51.354;9.588;2023-12-28T02:14:38;97828.25;;;9.15;58.04
5609;BME280;2826;51.354;9.588;2023-12-28T02:17:10;97833.84;;;9.04;58.65
5609;BME280;2826;51.354;9.588;2023-12-28T02:19:43;97826.22;;;9.23;58.32
5609;BME280;2826;51.354;9.588;2023-12-28T02:22:12;97811.66;;;9.21;58.75
5609;BME280;2826;51.354;9.588;2023-12-28T02:25:04;97820.06;;;9.04;59.71
5609;BME280;2826;51.354;9.588;2023-12-28T02:27:31;97812.25;;;9.05;60.97
5609;BME280;2826;51.354;9.588;2023-12-28T02:29:58;97813.88;;;9.08;60.79
5609;BME280;2826;51.354;9.588;2023-12-28T02:32:32;97820.06;;;9.04;60.91
5609;BME280;2826;51.354;9.588;2023-12-28T02:35:13;97835.06;;;8.95;61.64
5609;BME280;2826;51.354;9.588;2023-12-28T02:37:43;97833.19;;;8.99;61.46
5609;BME280;2826;51.354;9.588;2023-12-28T02:40:14;97815.91;;;8.77;61.65
5609;BME280;2826;51.354;9.588;2023-12-28T02:42:42;97794.38;;;8.76;61.30
5609;BME280;2826;51.354;9.588;2023-12-28T02:45:09;97824.31;;;9.06;61.76
5609;BME280;2826;51.354;9.588;2023-12-28T02:47:36;97835.78;;;8.99;61.70
5609;BME280;2826;51.354;9.588;2023-12-28T02:50:02;97835.59;;;9.04;61.05
5609;BME280;2826;51.354;9.588;2023-12-28T02:52:29;97832.94;;;9.05;61.11
5609;BME280;2826;51.354;9.588;2023-12-28T02:54:57;97836.06;;;9.13;61.29
5609;BME280;2826;51.354;9.588;2023-12-28T02:57:25;97849.00;;;9.13;61.00
5609;BME280;2826;51.354;9.588;2023-12-28T02:59:51;97853.41;;;9.11;61.20
5609;BME280;2826;51.354;9.588;2023-12-28T03:02:18;97846.88;;;9.01;61.08
5609;BME280;2826;51.354;9.588;2023-12-28T03:04:46;97838.59;;;9.15;60.54
5609;BME280;2826;51.354;9.588;2023-12-28T03:07:12;97837.63;;;9.18;60.71
5609;BME280;2826;51.354;9.588;2023-12-28T03:09:39;97830.25;;;9.08;60.61
5609;BME280;2826;51.354;9.588;2023-12-28T03:12:06;97834.44;;;9.11;60.84
5609;BME280;2826;51.354;9.588;2023-12-28T03:14:34;97823.13;;;9.13;60.13
5609;BME280;2826;51.354;9.588;2023-12-28T03:17:00;97823.94;;;9.15;60.29
5609;BME280;2826;51.354;9.588;2023-12-28T03:19:28;97828.78;;;9.01;60.25
5609;BME280;2826;51.354;9.588;2023-12-28T03:21:54;97845.44;;;9.16;60.01
5609;BME280;2826;51.354;9.588;2023-12-28T03:24:21;97843.34;;;9.26;59.95
5609;BME280;2826;51.354;9.588;2023-12-28T03:26:47;97837.34;;;9.25;59.82
5609;BME280;2826;51.354;9.588;2023-12-28T03:29:14;97814.91;;;9.26;60.17
5609;BME280;2826;51.354;9.588;2023-12-28T03:31:42;97828.00;;;9.21;60.27
5609;BME280;2826;51.354;9.588;2023-12-28T03:34:08;97837.47;;;9.22;60.48
5609;BME280;2826;51.354;9.588;2023-12-28T03:36:35;97798.91;;;8.94;60.92
5609;BME280;2826;51.354;9.588;2023-12-28T03:39:01;97842.50;;;9.25;60.74
5609;BME280;2826;51.354;9.588;2023-12-28T03:41:29;97844.53;;;9.17;61.27
5609;BME280;2826;51.354;9.588;2023-12-28T03:43:55;97844.28;;;9.25;61.45
5609;BME280;2826;51.354;9.588;2023-12-28T03:46:22;97836.44;;;9.26;61.37
5609;BME280;2826;51.354;9.588;2023-12-28T03:48:50;97838.06;;;9.29;61.46
5609;BME280;2826;51.354;9.588;2023-12-28T03:51:17;97842.44;;;9.27;61.62
5609;BME280;2826;51.354;9.588;2023-12-28T03:53:44;97830.41;;;9.26;62.14
5609;BME280;2826;51.354;9.588;2023-12-28T03:56:18;97836.63;;;9.22;62.82
5609;BME280;2826;51.354;9.588;2023-12-28T03:58:45;97830.69;;;9.20;63.07
5609;BME280;2826;51.354;9.588;2023-12-28T04:01:12;97847.63;;;9.27;62.95
5609;BME280;2826;51.354;9.588;2023-12-28T04:03:38;97844.38;;;9.22;63.35
5609;BME280;2826;51.354;9.588;2023-12-28T04:06:06;97838.94;;;9.28;63.35
5609;BME280;2826;51.354;9.588;2023-12-28T04:08:33;97846.72;;;9.28;63.50
5609;BME280;2826;51.354;9.588;2023-12-28T04:11:00;97850.41;;;9.22;64.22
5609;BME280;2826;51.354;9.588;2023-12-28T04:13:26;97846.91;;;9.23;63.71
5609;BME280;2826;51.354;9.588;2023-12-28T04:15:53;97843.41;;;9.24;64.44
5609;BME280;2826;51.354;9.588;2023-12-28T04:18:19;97842.34;;;9.30;64.49
5609;BME280;2826;51.354;9.588;2023-12-28T04:20:47;97856.91;;;9.33;64.80
5609;BME280;2826;51.354;9.588;2023-12-28T04:23:15;97866.94;;;9.40;64.52
5609;BME280;2826;51.354;9.588;2023-12-28T04:25:42;97861.97;;;9.36;65.21
5609;BME280;2826;51.354;9.588;2023-12-28T04:28:08;97859.78;;;9.25;66.02
5609;BME280;2826;51.354;9.588;2023-12-28T04:30:36;97872.38;;;9.34;66.29
5609;BME280;2826;51.354;9.588;2023-12-28T04:33:03;97870.00;;;9.28;67.01
5609;BME280;2826;51.354;9.588;2023-12-28T04:35:30;97861.63;;;9.21;67.26
5609;BME280;2826;51.354;9.588;2023-12-28T04:37:56;97865.19;;;9.19;68.23
5609;BME280;2826;51.354;9.588;2023-12-28T04:40:24;97868.53;;;9.22;68.36
5609;BME280;2826;51.354;9.588;2023-12-28T04:42:51;97857.38;;;9.20;68.51
5609;BME280;2826;51.354;9.588;2023-12-28T04:45:18;97859.31;;;9.15;69.78
5609;BME280;2826;51.354;9.588;2023-12-28T04:47:44;97854.19;;;9.13;70.06
5609;BME280;2826;51.354;9.588;2023-12-28T04:50:11;97852.25;;;9.19;70.02
5609;BME280;2826;51.354;9.588;2023-12-28T04:52:37;97847.56;;;9.06;71.48
5609;BME280;2826;51.354;9.588;2023-12-28T04:55:06;97841.19;;;8.93;72.18
5609;BME280;2826;51.354;9.588;2023-12-28T04:57:34;97841.13;;;8.94;72.96
5609;BME280;2826;51.354;9.588;2023-12-28T05:00:01;97839.22;;;8.99;72.95
5609;BME280;2826;51.354;9.588;2023-12-28T05:02:28;97833.34;;;8.94;73.49
5609;BME280;2826;51.354;9.588;2023-12-28T05:04:55;97830.50;;;9.02;73.45
5609;BME280;2826;51.354;9.588;2023-12-28T05:07:21;97841.13;;;8.94;73.83
5609;BME280;2826;51.354;9.588;2023-12-28T05:09:48;97836.25;;;8.86;74.32
5609;BME280;2826;51.354;9.588;2023-12-28T05:12:14;97829.03;;;8.95;74.38
5609;BME280;2826;51.354;9.588;2023-12-28T05:14:42;97837.09;;;8.87;74.45
5609;BME280;2826;51.354;9.588;2023-12-28T05:17:09;97840.69;;;8.83;74.94
5609;BME280;2826;51.354;9.588;2023-12-28T05:19:35;97857.63;;;8.90;75.01
5609;BME280;2826;51.354;9.588;2023-12-28T05:22:02;97850.75;;;8.91;74.62
5609;BME280;2826;51.354;9.588;2023-12-28T05:24:32;97839.28;;;8.98;74.30
5609;BME280;2826;51.354;9.588;2023-12-28T05:26:58;97846.38;;;8.93;74.66
5609;BME280;2826;51.354;9.588;2023-12-28T05:29:25;97836.28;;;8.85;74.93
5609;BME280;2826;51.354;9.588;2023-12-28T05:31:52;97846.13;;;8.99;74.78
5609;BME280;2826;51.354;9.588;2023-12-28T05:34:19;97857.47;;;8.72;75.56
5609;BME280;2826;51.354;9.588;2023-12-28T05:36:45;97842.03;;;8.93;75.20
5609;BME280;2826;51.354;9.588;2023-12-28T05:39:12;97840.41;;;8.91;75.10
5609;BME280;2826;51.354;9.588;2023-12-28T05:41:39;97834.31;;;8.92;74.79
5609;BME280;2826;51.354;9.588;2023-12-28T05:44:06;97846.03;;;8.78;75.21
5609;BME280;2826;51.354;9.588;2023-12-28T05:46:32;97844.50;;;8.96;74.75
5609;BME280;2826;51.354;9.588;2023-12-28T05:49:00;97865.13;;;8.98;74.16
5609;BME280;2826;51.354;9.588;2023-12-28T05:51:27;97851.44;;;8.94;74.50
5609;BME280;2826;51.354;9.588;2023-12-28T05:53:53;97852.38;;;8.93;74.64
5609;BME280;2826;51.354;9.588;2023-12-28T05:56:20;97849.88;;;8.90;74.85
5609;BME280;2826;51.354;9.588;2023-12-28T05:58:46;97859.09;;;8.97;74.65
5609;BME280;2826;51.354;9.588;2023-12-28T06:01:13;97859.47;;;8.88;75.46
5609;BME280;2826;51.354;9.588;2023-12-28T06:03:39;97852.22;;;8.74;75.91
5609;BME280;2826;51.354;9.588;2023-12-28T06:06:07;97845.50;;;8.92;75.36
5609;BME280;2826;51.354;9.588;2023-12-28T06:08:34;97851.75;;;8.86;75.38
5609;BME280;2826;51.354;9.588;2023-12-28T06:11:01;97843.09;;;8.87;75.44
5609;BME280;2826;51.354;9.588;2023-12-28T06:13:27;97846.19;;;8.97;75.52
5609;BME280;2826;51.354;9.588;2023-12-28T06:15:54;97848.94;;;8.93;75.31
5609;BME280;2826;51.354;9.588;2023-12-28T06:18:20;97849.38;;;9.04;74.42
5609;BME280;2826;51.354;9.588;2023-12-28T06:20:47;97856.16;;;9.07;74.36
5609;BME280;2826;51.354;9.588;2023-12-28T06:23:15;97859.00;;;9.00;75.00
5609;BME280;2826;51.354;9.588;2023-12-28T06:25:41;97851.03;;;9.05;74.66
5609;BME280;2826;51.354;9.588;2023-12-28T06:28:08;97850.16;;;9.06;75.31
5609;BME280;2826;51.354;9.588;2023-12-28T06:30:35;97855.19;;;9.09;75.17
5609;BME280;2826;51.354;9.588;2023-12-28T06:33:01;97842.31;;;9.08;74.49
5609;BME280;2826;51.354;9.588;2023-12-28T06:35:28;97851.94;;;9.04;75.23
5609;BME280;2826;51.354;9.588;2023-12-28T06:37:54;97860.31;;;9.11;75.01
5609;BME280;2826;51.354;9.588;2023-12-28T06:40:22;97861.94;;;8.91;75.97
5609;BME280;2826;51.354;9.588;2023-12-28T06:42:49;97854.78;;;8.98;75.68
5609;BME280;2826;51.354;9.588;2023-12-28T06:45:16;97832.09;;;8.82;75.70
5609;BME280;2826;51.354;9.588;2023-12-28T06:47:42;97862.00;;;9.12;75.38
5609;BME280;2826;51.354;9.588;2023-12-28T06:50:09;97862.34;;;9.02;75.83
5609;BME280;2826;51.354;9.588;2023-12-28T06:52:35;97867.59;;;9.01;75.91
5609;BME280;2826;51.354;9.588;2023-12-28T06:55:02;97869.03;;;9.08;75.57
5609;BME280;2826;51.354;9.588;2023-12-28T06:57:29;97888.22;;;9.02;76.17
5609;BME280;2826;51.354;9.588;2023-12-28T06:59:56;97891.66;;;9.03;76.22
5609;BME280;2826;51.354;9.588;2023-12-28T07:02:25;97887.19;;;9.07;75.87
5609;BME280;2826;51.354;9.588;2023-12-28T07:04:52;97882.13;;;9.04;76.22
5609;BME280;2826;51.354;9.588;2023-12-28T07:07:19;97893.09;;;9.10;76.14
5609;BME280;2826;51.354;9.588;2023-12-28T07:09:46;97899.72;;;8.95;77.55
5609;BME280;2826;51.354;9.588;2023-12-28T07:12:12;97897.38;;;9.11;76.91
5609;BME280;2826;51.354;9.588;2023-12-28T07:14:40;97900.75;;;9.13;76.64
5609;BME280;2826;51.354;9.588;2023-12-28T07:17:07;97902.72;;;9.07;76.57
5609;BME280;2826;51.354;9.588;2023-12-28T07:19:37;97902.22;;;8.97;77.79
5609;BME280;2826;51.354;9.588;2023-12-28T07:22:03;97892.66;;;8.99;77.83
5609;BME280;2826;51.354;9.588;2023-12-28T07:24:30;97882.09;;;9.05;76.74
5609;BME280;2826;51.354;9.588;2023-12-28T07:26:56;97901.66;;;9.12;77.26
5609;BME280;2826;51.354;9.588;2023-12-28T07:29:23;97898.69;;;8.99;77.93
5609;BME280;2826;51.354;9.588;2023-12-28T07:31:51;97898.50;;;9.04;77.89
5609;BME280;2826;51.354;9.588;2023-12-28T07:34:17;97901.66;;;9.12;77.67
5609;BME280;2826;51.354;9.588;2023-12-28T07:36:44;97906.31;;;9.02;78.32
5609;BME280;2826;51.354;9.588;2023-12-28T07:39:10;97914.75;;;9.08;78.24
5609;BME280;2826;51.354;9.588;2023-12-28T07:41:37;97919.66;;;9.15;77.87
5609;BME280;2826;51.354;9.588;2023-12-28T07:44:04;97922.91;;;9.21;77.93
5609;BME280;2826;51.354;9.588;2023-12-28T07:46:30;97923.00;;;9.18;77.90
5609;BME280;2826;51.354;9.588;2023-12-28T07:48:58;97923.19;;;9.13;78.46
5609;BME280;2826;51.354;9.588;2023-12-28T07:51:24;97918.50;;;9.23;78.31
5609;BME280;2826;51.354;9.588;2023-12-28T07:53:51;97922.91;;;9.21;77.96
5609;BME280;2826;51.354;9.588;2023-12-28T07:56:17;97922.00;;;9.22;77.99
5609;BME280;2826;51.354;9.588;2023-12-28T07:58:44;97922.91;;;9.21;78.34
5609;BME280;2826;51.354;9.588;2023-12-28T08:01:10;97884.06;;;8.98;78.07
5609;BME280;2826;51.354;9.588;2023-12-28T08:03:37;97934.56;;;9.31;78.18
5609;BME280;2826;51.354;9.588;2023-12-28T08:06:05;97933.66;;;9.32;77.87
5609;BME280;2826;51.354;9.588;2023-12-28T08:08:32;97933.50;;;9.37;77.81
5609;BME280;2826;51.354;9.588;2023-12-28T08:10:58;97936.38;;;9.29;78.67
5609;BME280;2826;51.354;9.588;2023-12-28T08:13:24;97932.53;;;9.39;77.70
5609;BME280;2826;51.354;9.588;2023-12-28T08:15:51;97929.09;;;9.39;78.18
5609;BME280;2826;51.354;9.588;2023-12-28T08:18:17;97938.63;;;9.38;78.14
5609;BME280;2826;51.354;9.588;2023-12-28T08:20:44;97930.56;;;9.46;77.94
5609;BME280;2826;51.354;9.588;2023-12-28T08:23:11;97921.47;;;9.58;77.37
5609;BME280;2826;51.354;9.588;2023-12-28T08:25:38;97928.63;;;9.51;77.31
5609;BME280;2826;51.354;9.588;2023-12-28T08:28:05;97937.91;;;9.57;77.40
5609;BME280;2826;51.354;9.588;2023-12-28T08:30:31;97941.16;;;9.62;76.92
5609;BME280;2826;51.354;9.588;2023-12-28T08:32:58;97946.09;;;9.69;76.95
5609;BME280;2826;51.354;9.588;2023-12-28T08:35:24;97939.22;;;9.67;76.99
5609;BME280;2826;51.354;9.588;2023-12-28T08:37:51;97955.16;;;9.57;77.41
5609;BME280;2826;51.354;9.588;2023-12-28T08:40:19;97957.81;;;9.55;77.30
5609;BME280;2826;51.354;9.588;2023-12-28T08:42:45;97938.34;;;9.69;77.18
5609;BME280;2826;51.354;9.588;2023-12-28T08:45:12;97939.03;;;9.72;76.62
5609;BME280;2826;51.354;9.588;2023-12-28T08:47:39;97932.84;;;9.54;77.55
5609;BME280;2826;51.354;9.588;2023-12-28T08:50:06;97946.53;;;9.58;77.27
5609;BME280;2826;51.354;9.588;2023-12-28T08:52:32;97940.91;;;9.69;77.12
5609;BME280;2826;51.354;9.588;2023-12-28T08:54:59;97932.66;;;9.59;77.09
5609;BME280;2826;51.354;9.588;2023-12-28T08:57:28;97941.25;;;9.59;77.69
5609;BME280;2826;51.354;9.588;2023-12-28T08:59:54;97940.44;;;9.59;77.61
5609;BME280;2826;51.354;9.588;2023-12-28T09:02:20;97931.16;;;9.53;77.40
5609;BME280;2826;51.354;9.588;2023-12-28T09:04:47;97910.31;;;9.34;77.78
5609;BME280;2826;51.354;9.588;2023-12-28T09:07:14;97942.00;;;9.63;77.76
5609;BME280;2826;51.354;9.588;2023-12-28T09:09:41;97927.19;;;9.66;77.61
5609;BME280;2826;51.354;9.588;2023-12-28T09:12:08;97947.03;;;9.66;77.46
5609;BME280;2826;51.354;9.588;2023-12-28T09:14:36;97943.75;;;9.62;77.60
5609;BME280;2826;51.354;9.588;2023-12-28T09:17:03;97942.28;;;9.55;77.80
5609;BME280;2826;51.354;9.588;2023-12-28T09:19:31;97954.63;;;9.71;77.49
5609;BME280;2826;51.354;9.588;2023-12-28T09:21:57;97962.22;;;9.75;77.02
5609;BME280;2826;51.354;9.588;2023-12-28T09:24:24;97972.75;;;9.71;77.57
5609;BME280;2826;51.354;9.588;2023-12-28T09:26:51;97976.59;;;9.83;76.75
5609;BME280;2826;51.354;9.588;2023-12-28T09:29:18;97985.97;;;9.64;77.81
5609;BME280;2826;51.354;9.588;2023-12-28T09:31:46;97953.31;;;9.60;77.46
5609;BME280;2826;51.354;9.588;2023-12-28T09:34:13;97932.72;;;9.57;76.87
5609;BME280;2826;51.354;9.588;2023-12-28T09:36:39;97990.88;;;9.93;76.97
5609;BME280;2826;51.354;9.588;2023-12-28T09:39:06;97991.34;;;10.03;76.54
5609;BME280;2826;51.354;9.588;2023-12-28T09:41:36;97991.41;;;10.01;76.57
5609;BME280;2826;51.354;9.588;2023-12-28T09:44:08;97998.88;;;10.09;76.21
5609;BME280;2826;51.354;9.588;2023-12-28T09:46:37;97994.00;;;10.01;76.29
5609;BME280;2826;51.354;9.588;2023-12-28T09:49:09;97993.28;;;9.98;76.78
5609;BME280;2826;51.354;9.588;2023-12-28T09:51:35;97990.31;;;10.07;76.25
5609;BME280;2826;51.354;9.588;2023-12-28T09:54:03;97986.28;;;10.00;76.42
5609;BME280;2826;51.354;9.588;2023-12-28T09:56:30;97981.47;;;10.13;75.74
5609;BME280;2826;51.354;9.588;2023-12-28T09:58:58;97979.31;;;10.02;76.42
5609;BME280;2826;51.354;9.588;2023-12-28T10:01:25;97985.63;;;9.94;76.77
5609;BME280;2826;51.354;9.588;2023-12-28T10:03:52;97999.16;;;9.80;77.24
5609;BME280;2826;51.354;9.588;2023-12-28T10:06:20;97986.81;;;10.08;76.21
5609;BME280;2826;51.354;9.588;2023-12-28T10:08:46;97991.56;;;10.19;75.35
5609;BME280;2826;51.354;9.588;2023-12-28T10:11:14;97994.94;;;10.21;75.30
5609;BME280;2826;51.354;9.588;2023-12-28T10:13:41;97995.91;;;10.18;75.53
5609;BME280;2826;51.354;9.588;2023-12-28T10:16:09;97994.34;;;10.14;75.40
5609;BME280;2826;51.354;9.588;2023-12-28T10:18:39;97989.72;;;10.23;75.41
5609;BME280;2826;51.354;9.588;2023-12-28T10:21:07;97997.59;;;10.19;75.66
5609;BME280;2826;51.354;9.588;2023-12-28T10:23:35;97991.38;;;10.24;75.06
5609;BME280;2826;51.354;9.588;2023-12-28T10:26:01;97992.66;;;10.13;75.60
5609;BME280;2826;51.354;9.588;2023-12-28T10:28:31;97996.16;;;10.12;76.05
5609;BME280;2826;51.354;9.588;2023-12-28T10:30:58;98005.31;;;10.21;75.53
5609;BME280;2826;51.354;9.588;2023-12-28T10:33:24;97991.34;;;10.25;75.61
5609;BME280;2826;51.354;9.588;2023-12-28T10:35:51;97989.63;;;10.24;75.50
5609;BME280;2826;51.354;9.588;2023-12-28T10:38:19;97988.09;;;10.20;75.81
5609;BME280;2826;51.354;9.588;2023-12-28T10:40:48;97987.94;;;10.23;75.74
5609;BME280;2826;51.354;9.588;2023-12-28T10:43:16;97993.06;;;10.25;75.40
5609;BME280;2826;51.354;9.588;2023-12-28T10:45:47;97981.66;;;10.29;75.92
5609;BME280;2826;51.354;9.588;2023-12-28T10:48:21;97985.75;;;10.35;75.53
5609;BME280;2826;51.354;9.588;2023-12-28T10:50:52;97989.63;;;10.47;75.67
5609;BME280;2826;51.354;9.588;2023-12-28T10:53:29;97980.44;;;10.38;75.62
5609;BME280;2826;51.354;9.588;2023-12-28T10:56:13;97975.91;;;10.43;75.48
5609;BME280;2826;51.354;9.588;2023-12-28T10:58:48;97962.59;;;10.52;74.66
5609;BME280;2826;51.354;9.588;2023-12-28T11:01:21;97970.94;;;10.59;74.44
5609;BME280;2826;51.354;9.588;2023-12-28T11:03:53;97965.63;;;10.62;74.68
5609;BME280;2826;51.354;9.588;2023-12-28T11:06:25;97964.16;;;10.56;75.02
5609;BME280;2826;51.354;9.588;2023-12-28T11:08:53;97961.09;;;10.67;74.19
5609;BME280;2826;51.354;9.588;2023-12-28T11:11:22;97960.06;;;10.71;74.09
5609;BME280;2826;51.354;9.588;2023-12-28T11:13:50;97950.31;;;10.77;73.50
5609;BME280;2826;51.354;9.588;2023-12-28T11:16:18;97950.06;;;11.02;73.29
5609;BME280;2826;51.354;9.588;2023-12-28T11:18:46;97949.28;;;11.00;72.54
5609;BME280;2826;51.354;9.588;2023-12-28T11:21:13;97943.88;;;11.05;71.76
5609;BME280;2826;51.354;9.588;2023-12-28T11:23:40;97947.66;;;11.17;71.92
5609;BME280;2826;51.354;9.588;2023-12-28T11:26:15;97942.22;;;11.23;71.49
5609;BME280;2826;51.354;9.588;2023-12-28T11:28:43;97940.75;;;11.36;71.07
5609;BME280;2826;51.354;9.588;2023-12-28T11:31:10;97934.69;;;11.55;70.50
5609;BME280;2826;51.354;9.588;2023-12-28T11:33:43;97938.03;;;11.57;69.98
5609;BME280;2826;51.354;9.588;2023-12-28T11:36:10;97942.44;;;11.74;68.68
5609;BME280;2826;51.354;9.588;2023-12-28T11:38:38;97925.75;;;11.79;68.48
5609;BME280;2826;51.354;9.588;2023-12-28T11:41:06;97924.31;;;11.73;68.12
5609;BME280;2826;51.354;9.588;2023-12-28T11:43:35;97918.94;;;11.76;68.12
5609;BME280;2826;51.354;9.588;2023-12-28T11:46:04;97903.69;;;11.87;67.83
5609;BME280;2826;51.354;9.588;2023-12-28T11:48:31;97905.69;;;12.00;68.02
5609;BME280;2826;51.354;9.588;2023-12-28T11:50:59;97891.63;;;12.04;66.98
5609;BME280;2826;51.354;9.588;2023-12-28T11:53:27;97908.78;;;12.26;66.44
5609;BME280;2826;51.354;9.588;2023-12-28T11:55:59;97891.88;;;12.17;65.21
5609;BME280;2826;51.354;9.588;2023-12-28T11:58:28;97904.56;;;12.06;65.15
5609;BME280;2826;51.354;9.588;2023-12-28T12:00:54;97858.06;;;11.99;64.61
5609;BME280;2826;51.354;9.588;2023-12-28T12:03:24;97914.94;;;12.23;65.30
5609;BME280;2826;51.354;9.588;2023-12-28T12:05:51;97909.13;;;12.00;65.03
5609;BME280;2826;51.354;9.588;2023-12-28T12:08:19;97904.69;;;12.02;65.35
5609;BME280;2826;51.354;9.588;2023-12-28T12:10:46;97907.59;;;11.96;65.26
5609;BME280;2826;51.354;9.588;2023-12-28T12:13:13;97912.50;;;12.02;65.02
5609;BME280;2826;51.354;9.588;2023-12-28T12:15:41;97904.41;;;12.09;64.63
5609;BME280;2826;51.354;9.588;2023-12-28T12:18:09;97903.41;;;12.11;65.30
5609;BME280;2826;51.354;9.588;2023-12-28T12:20:36;97900.44;;;12.19;65.15
5609;BME280;2826;51.354;9.588;2023-12-28T12:23:04;97905.75;;;11.98;65.68
5609;BME280;2826;51.354;9.588;2023-12-28T12:25:30;97893.19;;;12.08;64.85
5609;BME280;2826;51.354;9.588;2023-12-28T12:27:57;97890.75;;;12.05;65.25
5609;BME280;2826;51.354;9.588;2023-12-28T12:30:24;97902.31;;;11.98;65.38
5609;BME280;2826;51.354;9.588;2023-12-28T12:32:50;97902.25;;;11.99;65.72
5609;BME280;2826;51.354;9.588;2023-12-28T12:35:17;97907.28;;;11.85;66.18
5609;BME280;2826;51.354;9.588;2023-12-28T12:37:48;97903.31;;;11.95;65.33
5609;BME280;2826;51.354;9.588;2023-12-28T12:40:17;97897.03;;;11.99;65.67
5609;BME280;2826;51.354;9.588;2023-12-28T12:42:52;97889.09;;;12.02;65.32
5609;BME280;2826;51.354;9.588;2023-12-28T12:45:21;97892.63;;;12.01;65.36
5609;BME280;2826;51.354;9.588;2023-12-28T12:47:48;97895.97;;;12.03;65.31
5609;BME280;2826;51.354;9.588;2023-12-28T12:50:16;97887.06;;;12.09;65.32
5609;BME280;2826;51.354;9.588;2023-12-28T12:52:42;97889.53;;;12.12;64.92
5609;BME280;2826;51.354;9.588;2023-12-28T12:55:11;97894.88;;;12.09;64.81
5609;BME280;2826;51.354;9.588;2023-12-28T12:57:37;97890.13;;;12.18;64.32
5609;BME280;2826;51.354;9.588;2023-12-28T13:00:05;97890.78;;;12.03;64.72
5609;BME280;2826;51.354;9.588;2023-12-28T13:02:34;97885.75;;;12.18;64.55
5609;BME280;2826;51.354;9.588;2023-12-28T13:05:01;97882.97;;;12.03;64.87
5609;BME280;2826;51.354;9.588;2023-12-28T13:07:29;97886.06;;;12.12;64.53
5609;BME280;2826;51.354;9.588;2023-12-28T13:09:56;97886.06;;;12.12;64.30
5609;BME280;2826;51.354;9.588;2023-12-28T13:12:24;97870.38;;;11.96;64.77
5609;BME280;2826;51.354;9.588;2023-12-28T13:14:50;97882.69;;;12.10;64.19
5609;BME280;2826;51.354;9.588;2023-12-28T13:17:17;97877.00;;;12.37;63.99
5609;BME280;2826;51.354;9.588;2023-12-28T13:19:43;97871.13;;;12.33;63.85
5609;BME280;2826;51.354;9.588;2023-12-28T13:22:10;97869.56;;;12.47;62.73
5609;BME280;2826;51.354;9.588;2023-12-28T13:24:37;97871.69;;;12.56;62.00
5609;BME280;2826;51.354;9.588;2023-12-28T13:27:03;97863.97;;;12.54;61.79
5609;BME280;2826;51.354;9.588;2023-12-28T13:29:31;97866.97;;;12.47;62.23
5609;BME280;2826;51.354;9.588;2023-12-28T13:31:58;97865.47;;;12.59;62.45